Time;durP1;ratioP1;P1;durP2;ratioP2;P2;SDS_P1;SDS_P2;PMS_P1;PMS_P2;Temp;Humidity;BMP_temperature;BMP_pressure;BME280_temperature;BME280_humidity;BME280_pressure;Samples;Min_cycle;Max_cycle;Signal;HPM_P1;HPM_P2
2022/12/28 00:05:06;;;;;;;10.90;5.00;;;;;;;1.40;100.00;101371.85;5002924;57;1136901;-70
2022/12/28 00:10:12;;;;;;;14.13;5.43;;;;;;;1.38;100.00;101356.25;5028505;57;1138808;-67
2022/12/28 00:15:18;;;;;;;14.00;5.47;;;;;;;1.36;100.00;101355.91;5030463;57;1139048;-68
2022/12/28 00:20:24;;;;;;;14.53;7.20;;;;;;;1.31;100.00;101349.95;4976022;56;1138816;-69
2022/12/28 00:25:29;;;;;;;17.80;6.57;;;;;;;1.30;100.00;101356.91;5064214;56;1138732;-69
2022/12/28 00:30:35;;;;;;;14.60;6.60;;;;;;;1.31;100.00;101347.34;5038537;56;1138867;-69
2022/12/28 00:35:41;;;;;;;18.97;7.23;;;;;;;1.25;100.00;101345.75;4987774;57;1139028;-68
2022/12/28 00:40:47;;;;;;;19.37;8.97;;;;;;;1.20;100.00;101335.91;4956634;57;1138902;-68
2022/12/28 00:45:53;;;;;;;24.10;8.63;;;;;;;1.21;100.00;101330.25;4984358;56;1138943;-67
2022/12/28 00:51:09;;;;;;;15.03;7.23;;;;;;;1.15;100.00;101323.44;5058125;56;1138745;-70
2022/12/28 00:56:19;;;;;;;17.53;7.47;;;;;;;1.15;100.00;101325.19;5024628;56;1138828;-70
2022/12/28 01:01:27;;;;;;;17.93;9.30;;;;;;;1.13;100.00;101327.83;5038664;56;1138864;-69
2022/12/28 01:06:35;;;;;;;17.13;7.53;;;;;;;1.13;100.00;101329.58;5038659;56;1138974;-67
2022/12/28 01:11:42;;;;;;;17.30;7.92;;;;;;;1.10;100.00;101332.26;5057943;56;1138838;-70
2022/12/28 01:16:48;;;;;;;17.95;8.08;;;;;;;1.09;100.00;101335.31;5062720;56;1138896;-66
2022/12/28 01:21:56;;;;;;;14.40;7.93;;;;;;;1.09;100.00;101332.70;5097440;56;1138845;-67
2022/12/28 01:27:02;;;;;;;25.43;7.87;;;;;;;1.11;100.00;101326.16;5064531;56;1138938;-67
2022/12/28 01:32:08;;;;;;;15.83;6.80;;;;;;;1.14;100.00;101319.13;5046761;56;1138719;-71
2022/12/28 01:37:14;;;;;;;22.30;7.40;;;;;;;1.15;100.00;101315.63;4998753;56;1138787;-67
2022/12/28 01:42:21;;;;;;;24.30;10.07;;;;;;;1.12;100.00;101301.37;4978705;57;1138866;-70
2022/12/28 01:47:34;;;;;;;23.30;9.37;;;;;;;1.13;100.00;101297.02;5033058;56;1151203;-66
2022/12/28 01:52:57;;;;;;;13.97;7.17;;;;;;;1.14;100.00;101289.16;5064750;56;1138978;-68
2022/12/28 01:58:11;;;;;;;19.77;7.27;;;;;;;1.17;100.00;101289.09;5044294;57;1138805;-69
2022/12/28 02:03:20;;;;;;;;;;;;;;;1.15;100.00;101287.41;5056293;57;1138982;-67
2022/12/28 02:08:32;;;;;;;21.43;6.53;;;;;;;1.11;100.00;101274.05;5029230;56;973983;-65
2022/12/28 02:13:39;;;;;;;22.63;8.10;;;;;;;1.08;100.00;101281.50;4979559;56;1136675;-69
2022/12/28 02:18:46;;;;;;;15.10;6.30;;;;;;;1.09;100.00;101271.94;5010997;56;1138827;-68
2022/12/28 02:24:13;;;;;;;14.87;6.77;;;;;;;1.09;100.00;101275.84;5020158;57;1138824;-67
2022/12/28 02:29:35;;;;;;;15.05;6.67;;;;;;;1.05;100.00;101260.77;5011253;57;1138861;-68
2022/12/28 02:34:58;;;;;;;11.13;6.00;;;;;;;1.05;100.00;101249.05;5013369;57;1138809;-68
2022/12/28 02:40:09;;;;;;;12.80;5.60;;;;;;;1.05;100.00;101250.34;5058169;57;1138968;-71
2022/12/28 02:51:35;;;;;;;15.17;6.63;;;;;;;1.10;100.00;101230.66;5043907;57;1138663;-68
2022/12/28 02:56:49;;;;;;;9.47;5.93;;;;;;;1.13;100.00;101234.05;5110782;56;1138711;-70
2022/12/28 03:02:21;;;;;;;12.05;5.05;;;;;;;1.20;100.00;101230.84;5126294;56;1136717;-67
2022/12/28 03:13:41;;;;;;;9.97;4.70;;;;;;;1.33;100.00;101210.05;5077255;56;1136909;-67
2022/12/28 03:34:39;;;;;;;8.73;4.50;;;;;;;1.47;100.00;101179.67;5026713;57;1138777;-69
2022/12/28 03:40:07;;;;;;;13.33;4.87;;;;;;;1.48;100.00;101177.48;5044023;57;1136831;-66
2022/12/28 03:45:27;;;;;;;8.63;3.98;;;;;;;1.44;100.00;101173.24;5049190;57;1138985;-67
2022/12/28 03:50:39;;;;;;;7.93;4.10;;;;;;;1.44;100.00;101170.19;4962255;57;1136732;-71
2022/12/28 03:55:46;;;;;;;;;;;;;;;1.42;100.00;101149.83;4896156;58;1137022;-70
2022/12/28 04:00:53;;;;;;;4.47;3.20;;;;;;;1.43;100.00;101135.90;4999470;57;974030;-68
2022/12/28 04:05:59;;;;;;;8.37;3.77;;;;;;;1.46;100.00;101125.39;4963796;57;1134739;-69
2022/12/28 04:11:05;;;;;;;7.83;3.90;;;;;;;1.47;100.00;101116.67;4947584;58;1136786;-66
2022/12/28 04:16:14;;;;;;;9.43;3.73;;;;;;;1.49;100.00;101124.00;5084947;56;1136812;-66
2022/12/28 04:21:20;;;;;;;12.17;3.80;;;;;;;1.51;100.00;101103.95;5122400;56;1136885;-66
2022/12/28 04:26:27;;;;;;;9.28;3.04;;;;;;;1.57;100.00;101089.86;5029497;57;1138856;-69
2022/12/28 04:31:33;;;;;;;9.60;3.15;;;;;;;1.62;100.00;101084.91;5064943;57;1136800;-67
2022/12/28 04:36:46;;;;;;;10.87;3.97;;;;;;;1.66;100.00;101077.41;5046105;57;1136754;-66
2022/12/28 04:41:54;;;;;;;7.30;3.27;;;;;;;1.66;100.00;101072.19;5046170;57;1138781;-68
2022/12/28 04:47:00;;;;;;;12.27;4.67;;;;;;;1.72;100.00;101067.21;5113896;56;1136971;-65
2022/12/28 04:52:05;;;;;;;7.37;3.17;;;;;;;1.76;100.00;101056.64;5131267;56;1138954;-70
2022/12/28 04:57:11;;;;;;;9.83;3.33;;;;;;;1.84;100.00;101052.91;5131863;56;1136816;-66
2022/12/28 05:02:18;;;;;;;5.73;3.43;;;;;;;1.87;100.00;101052.81;5106292;56;1136919;-67
2022/12/28 05:07:24;;;;;;;7.33;3.80;;;;;;;1.89;100.00;101039.28;5034419;56;1136869;-71
2022/12/28 05:12:30;;;;;;;11.70;4.40;;;;;;;1.92;100.00;101026.14;5045259;56;1136821;-67
2022/12/28 05:17:37;;;;;;;8.08;3.95;;;;;;;1.93;100.00;101035.22;5007780;56;1138834;-66
2022/12/28 05:22:42;;;;;;;6.97;3.42;;;;;;;1.93;100.00;101027.39;5027376;56;1136980;-70
2022/12/28 05:27:48;;;;;;;7.57;3.00;;;;;;;1.94;100.00;101016.06;5078293;56;1136698;-67
2022/12/28 05:32:54;;;;;;;13.63;4.40;;;;;;;1.89;100.00;101007.53;5108437;56;1136887;-65
2022/12/28 05:37:59;;;;;;;11.43;4.67;;;;;;;1.92;100.00;101024.83;5072731;56;1138673;-69
2022/12/28 05:43:06;;;;;;;14.27;4.47;;;;;;;1.91;100.00;101015.30;4930395;57;1138971;-69
2022/12/28 05:48:12;;;;;;;12.07;4.43;;;;;;;1.89;100.00;101006.67;4962706;56;1138904;-64
2022/12/28 05:53:18;;;;;;;5.87;3.83;;;;;;;1.88;100.00;100986.26;5028903;57;1139091;-69
2022/12/28 05:58:25;;;;;;;10.77;4.00;;;;;;;1.87;100.00;100975.87;4980641;57;1136946;-68
2022/12/28 06:03:30;;;;;;;8.80;3.30;;;;;;;1.85;100.00;100973.77;4974991;56;1139224;-66
2022/12/28 06:08:37;;;;;;;12.33;4.33;;;;;;;1.88;100.00;100958.87;5058574;56;1136746;-66
2022/12/28 06:13:43;;;;;;;9.87;5.20;;;;;;;1.91;100.00;100952.70;5086031;56;1138764;-68
2022/12/28 06:18:51;;;;;;;12.23;4.50;;;;;;;1.89;100.00;100939.72;4997086;56;1136880;-65
2022/12/28 06:23:59;;;;;;;14.10;6.73;;;;;;;1.89;100.00;100933.20;4934985;56;1138776;-70
2022/12/28 06:29:05;;;;;;;9.23;4.70;;;;;;;1.88;100.00;100927.58;5109316;56;1138893;-64
2022/12/28 06:34:11;;;;;;;9.57;4.70;;;;;;;1.86;100.00;100930.69;5079432;56;1136665;-66
2022/12/28 06:39:17;;;;;;;9.13;3.90;;;;;;;1.84;100.00;100929.03;5041221;57;1136826;-67
2022/12/28 06:44:22;;;;;;;15.63;5.03;;;;;;;1.86;100.00;100930.69;5041858;57;1136739;-66
2022/12/28 06:49:29;;;;;;;26.27;7.13;;;;;;;1.88;100.00;100924.97;5080927;57;1138611;-66
2022/12/28 06:54:34;;;;;;;10.07;5.27;;;;;;;1.91;100.00;100926.62;5041097;57;1148266;-65
2022/12/28 06:59:40;;;;;;;17.33;5.77;;;;;;;1.91;100.00;100922.71;5041446;56;1138725;-66
2022/12/28 07:04:46;;;;;;;12.80;4.58;;;;;;;1.91;100.00;100910.97;5061099;56;1138756;-70
2022/12/28 07:09:53;;;;;;;10.80;3.73;;;;;;;1.91;100.00;100921.41;5065687;56;1138800;-66
2022/12/28 07:15:00;;;;;;;13.65;4.30;;;;;;;1.90;100.00;100910.12;5049070;56;1138932;-67
2022/12/28 07:20:07;;;;;;;8.93;4.00;;;;;;;1.92;100.00;100907.02;5061221;56;1138838;-67
2022/12/28 07:25:12;;;;;;;13.03;4.83;;;;;;;1.93;100.00;100900.89;5106556;56;1136559;-66
2022/12/28 07:30:19;;;;;;;11.50;3.57;;;;;;;1.98;100.00;100901.59;5063316;56;1138571;-71
2022/12/28 07:35:25;;;;;;;14.20;4.80;;;;;;;2.01;100.00;100886.25;4979620;57;1138853;-69
2022/12/28 07:40:30;;;;;;;15.07;4.03;;;;;;;2.03;100.00;100887.05;4982290;57;1138729;-67
2022/12/28 07:45:36;;;;;;;18.60;4.53;;;;;;;2.08;100.00;100887.74;4962454;57;1138872;-69
2022/12/28 07:50:42;;;;;;;10.58;4.47;;;;;;;2.08;100.00;100878.61;4963034;58;1138758;-69
2022/12/28 07:55:58;;;;;;;17.77;4.47;;;;;;;2.08;100.00;100866.88;4986669;57;1138659;-67
2022/12/28 08:01:10;;;;;;;14.27;4.97;;;;;;;2.09;100.00;100859.45;5037702;57;1138638;-69
2022/12/28 08:06:19;;;;;;;9.80;4.30;;;;;;;2.14;100.00;100864.50;5043021;57;1138674;-70
2022/12/28 08:11:28;;;;;;;6.40;3.77;;;;;;;2.17;100.00;100867.82;5051806;56;1136798;-69
2022/12/28 08:16:40;;;;;;;10.27;3.93;;;;;;;2.21;100.00;100858.98;5077338;56;1136736;-69
2022/12/28 08:21:46;;;;;;;13.60;6.00;;;;;;;2.29;100.00;100856.09;5063397;56;1138732;-69
2022/12/28 08:26:52;;;;;;;25.87;11.73;;;;;;;2.32;100.00;100842.91;5055676;56;1138940;-68
2022/12/28 08:31:58;;;;;;;21.13;9.00;;;;;;;2.38;100.00;100844.84;5057220;57;1141079;-68
2022/12/28 08:37:04;;;;;;;20.53;9.90;;;;;;;2.41;100.00;100832.98;4956940;58;1139031;-69
2022/12/28 08:42:09;;;;;;;35.23;13.90;;;;;;;2.46;100.00;100823.64;5059468;56;1138703;-69
2022/12/28 08:47:15;;;;;;;15.57;7.63;;;;;;;2.54;100.00;100832.03;5021204;56;1140837;-70
2022/12/28 08:52:23;;;;;;;31.73;11.80;;;;;;;2.59;100.00;100824.88;5028722;56;1138782;-67
2022/12/28 08:57:29;;;;;;;19.87;9.25;;;;;;;2.65;100.00;100815.93;5022158;56;1140964;-71
2022/12/28 09:02:35;;;;;;;21.63;7.60;;;;;;;2.70;100.00;100817.91;5031524;57;1138590;-67
2022/12/28 09:07:41;;;;;;;15.90;6.60;;;;;;;2.71;100.00;100817.85;4944177;57;1138773;-69
2022/12/28 09:12:47;;;;;;;20.77;8.08;;;;;;;2.76;100.00;100815.89;4941999;57;1138928;-68
2022/12/28 09:17:52;;;;;;;25.10;14.33;;;;;;;2.83;100.00;100795.60;4982130;57;1138974;-70
2022/12/28 09:22:59;;;;;;;22.63;12.60;;;;;;;2.88;100.00;100796.73;5034685;57;1141049;-67
2022/12/28 09:28:05;;;;;;;21.73;11.27;;;;;;;2.93;100.00;100786.46;5031667;56;1140909;-68
2022/12/28 09:38:35;;;;;;;42.23;12.27;;;;;;;3.05;100.00;100765.52;4977658;57;1140847;-64
2022/12/28 09:43:42;;;;;;;59.08;26.68;;;;;;;3.13;100.00;100762.11;4983135;57;1140837;-69
2022/12/28 09:48:53;;;;;;;23.38;9.00;;;;;;;3.31;100.00;100757.85;5058014;57;1140983;-68
2022/12/28 09:53:58;;;;;;;14.67;6.00;;;;;;;3.45;100.00;100736.72;5044759;56;1138713;-66
2022/12/28 09:59:07;;;;;;;19.37;8.00;;;;;;;3.63;100.00;100730.27;5044528;56;1138744;-69
2022/12/28 10:04:13;;;;;;;19.23;6.77;;;;;;;3.73;100.00;100732.84;5052749;56;1138583;-69
2022/12/28 10:09:28;;;;;;;11.80;4.77;;;;;;;3.85;100.00;100732.27;4977221;56;1138715;-65
2022/12/28 10:14:36;;;;;;;20.32;6.40;;;;;;;3.97;100.00;100729.56;5087714;56;1140390;-68
2022/12/28 10:19:47;;;;;;;16.62;6.05;;;;;;;4.04;100.00;100704.33;5065004;56;1138775;-67
2022/12/28 10:24:54;;;;;;;63.53;16.33;;;;;;;4.09;100.00;100679.25;5044677;56;1138673;-67
2022/12/28 10:30:04;;;;;;;33.80;9.07;;;;;;;4.20;100.00;100680.42;5044635;55;1141134;-65
2022/12/28 10:35:14;;;;;;;8.70;4.30;;;;;;;4.26;100.00;100682.37;5029381;57;1138678;-68
2022/12/28 10:40:27;;;;;;;15.13;4.67;;;;;;;4.33;100.00;100669.34;5013841;57;1136668;-67
2022/12/28 10:45:41;;;;;;;14.45;4.70;;;;;;;4.37;100.00;100659.95;5031424;57;1138704;-68
2022/12/28 10:51:00;;;;;;;12.05;5.30;;;;;;;4.44;100.00;100656.55;5021204;57;1138662;-65
2022/12/28 10:56:30;;;;;;;30.30;12.70;;;;;;;4.49;100.00;100648.02;5064709;56;1138849;-68
2022/12/28 11:01:36;;;;;;;20.75;7.47;;;;;;;4.48;100.00;100641.93;5044717;57;1145248;-68
2022/12/28 11:07:03;;;;;;;19.63;7.00;;;;;;;4.49;100.00;100621.36;5044872;56;1138807;-70
2022/12/28 11:12:25;;;;;;;28.77;10.15;;;;;;;4.50;100.00;100606.04;5014957;57;1138619;-67
2022/12/28 11:17:36;;;;;;;18.00;6.63;;;;;;;4.51;100.00;100599.87;5038686;56;1140826;-66
2022/12/28 11:22:42;;;;;;;9.93;4.70;;;;;;;4.60;100.00;100584.14;5040976;56;1138821;-69
2022/12/28 11:27:51;;;;;;;12.23;4.37;;;;;;;4.68;100.00;100574.59;5068972;56;1136631;-68
2022/12/28 11:33:05;;;;;;;10.97;4.43;;;;;;;4.75;100.00;100576.79;5053984;56;1138707;-67
2022/12/28 11:38:13;;;;;;;10.73;4.60;;;;;;;4.81;100.00;100571.70;5016380;56;1138793;-70
2022/12/28 11:43:42;;;;;;;14.77;7.20;;;;;;;4.84;100.00;100561.06;5028168;56;1138914;-69
2022/12/28 11:48:48;;;;;;;14.40;6.20;;;;;;;4.89;100.00;100536.28;4996100;56;1138864;-69
2022/12/28 11:54:01;;;;;;;15.10;6.83;;;;;;;4.98;100.00;100539.36;4993151;56;1139050;-70
2022/12/28 11:59:19;;;;;;;10.87;4.97;;;;;;;5.00;100.00;100536.19;5067967;56;1138746;-67
2022/12/28 12:04:45;;;;;;;8.80;4.17;;;;;;;5.04;100.00;100531.17;5102534;56;1138930;-67
2022/12/28 12:10:14;;;;;;;11.22;5.17;;;;;;;5.07;100.00;100530.52;5056308;56;1136643;-65
2022/12/28 12:15:24;;;;;;;14.23;5.07;;;;;;;5.10;100.00;100512.00;5121107;56;1138729;-67
2022/12/28 12:20:55;;;;;;;13.20;5.70;;;;;;;5.11;100.00;100507.14;5092739;56;1138681;-66
2022/12/28 12:26:05;;;;;;;11.50;4.57;;;;;;;5.16;100.00;100495.95;5056919;56;1138744;-65
2022/12/28 12:31:21;;;;;;;10.27;4.83;;;;;;;5.19;100.00;100481.36;5053316;56;1138671;-64
2022/12/28 12:36:59;;;;;;;8.55;4.35;;;;;;;5.24;100.00;100483.70;5054759;56;1138904;-68
2022/12/28 12:42:34;;;;;;;6.73;3.20;;;;;;;5.27;100.00;100489.62;5074200;56;1137135;-69
2022/12/28 12:47:59;;;;;;;11.08;4.50;;;;;;;5.34;100.00;100484.05;5093531;56;1137102;-70
2022/12/28 12:53:34;;;;;;;10.03;4.13;;;;;;;5.38;100.00;100478.99;5090318;56;1138843;-68
2022/12/28 12:59:09;;;;;;;7.15;3.17;;;;;;;5.44;100.00;100470.78;5053396;56;1138881;-68
2022/12/28 13:04:24;;;;;;;8.83;4.70;;;;;;;5.47;100.00;100457.03;5084633;56;1136652;-70
2022/12/28 13:09:34;;;;;;;13.23;5.47;;;;;;;5.53;100.00;100434.83;5101443;56;1136667;-67
2022/12/28 13:14:43;;;;;;;21.17;6.93;;;;;;;5.55;100.00;100449.56;5092448;56;1138841;-69
2022/12/28 13:19:50;;;;;;;13.17;5.73;;;;;;;5.56;100.00;100445.16;5075362;56;1138988;-69
2022/12/28 13:24:57;;;;;;;16.87;7.33;;;;;;;5.60;100.00;100453.23;5069942;56;1138952;-66
2022/12/28 13:30:04;;;;;;;14.23;5.72;;;;;;;5.62;100.00;100451.38;5070001;56;1138809;-68
2022/12/28 13:35:26;;;;;;;14.13;6.83;;;;;;;5.60;100.00;100442.27;5091785;56;1138717;-68
2022/12/28 13:40:33;;;;;;;16.87;5.70;;;;;;;5.64;100.00;100448.20;5058742;56;1138817;-68
2022/12/28 13:45:39;;;;;;;12.33;4.97;;;;;;;5.64;100.00;100434.61;5057772;56;1138974;-66
2022/12/28 13:50:46;;;;;;;18.47;6.00;;;;;;;5.65;100.00;100428.40;5081863;56;1138945;-67
2022/12/28 13:55:58;;;;;;;4.97;3.17;;;;;;;5.68;100.00;100437.88;5060082;56;1138740;-71
2022/12/28 14:01:09;;;;;;;17.30;5.57;;;;;;;5.68;100.00;100423.91;5064558;56;1136743;-67
2022/12/28 14:06:22;;;;;;;15.27;7.40;;;;;;;5.69;100.00;100440.03;5064937;56;1139125;-68
2022/12/28 14:11:31;;;;;;;14.90;7.63;;;;;;;5.69;100.00;100450.06;5046641;56;1138761;-65
2022/12/28 14:16:38;;;;;;;16.25;6.83;;;;;;;5.66;100.00;100425.31;5077842;56;1138835;-69
2022/12/28 14:21:46;;;;;;;13.50;6.05;;;;;;;5.63;100.00;100418.95;5090398;56;1139065;-67
2022/12/28 14:27:01;;;;;;;16.87;6.23;;;;;;;5.63;100.00;100416.33;5083740;56;1141304;-67
2022/12/28 14:32:10;;;;;;;14.17;5.40;;;;;;;5.61;100.00;100402.45;5063053;56;1138824;-67
2022/12/28 14:37:31;;;;;;;13.25;5.65;;;;;;;5.61;100.00;100396.74;5141016;56;1139003;-69
2022/12/28 14:42:37;;;;;;;11.10;6.40;;;;;;;5.64;100.00;100397.03;5120415;56;1140943;-68
2022/12/28 14:47:47;;;;;;;11.23;4.90;;;;;;;5.62;100.00;100410.23;5064116;56;1138782;-70
2022/12/28 14:53:17;;;;;;;12.93;7.63;;;;;;;5.61;100.00;100400.68;5080476;57;1138877;-68
2022/12/28 14:58:33;;;;;;;33.77;14.60;;;;;;;5.60;100.00;100410.80;5040459;57;1138724;-68
2022/12/28 15:04:04;;;;;;;41.43;22.13;;;;;;;5.56;100.00;100420.23;5024775;57;1140947;-70
2022/12/28 15:09:11;;;;;;;17.40;7.10;;;;;;;5.55;100.00;100405.42;5067233;56;1143243;-64
2022/12/28 15:14:17;;;;;;;18.77;8.45;;;;;;;5.48;100.00;100404.96;5039710;57;1140959;-63
2022/12/28 15:19:22;;;;;;;18.27;9.60;;;;;;;5.45;100.00;100416.09;5062515;56;1139064;-67
2022/12/28 15:24:28;;;;;;;10.50;6.03;;;;;;;5.41;100.00;100404.08;5094084;56;1141230;-66
2022/12/28 15:29:34;;;;;;;12.37;5.75;;;;;;;5.39;100.00;100408.09;5136351;56;1181660;-66
2022/12/28 15:34:40;;;;;;;20.23;10.18;;;;;;;5.37;100.00;100399.94;4987721;57;1140957;-68
2022/12/28 15:39:47;;;;;;;13.50;5.93;;;;;;;5.34;100.00;100400.98;4881219;58;1164805;-68
2022/12/28 15:44:53;;;;;;;15.50;7.50;;;;;;;5.33;100.00;100401.92;5074529;56;1140928;-66
2022/12/28 15:50:01;;;;;;;24.00;8.17;;;;;;;5.32;100.00;100412.48;5123515;56;1140860;-66
2022/12/28 15:55:07;;;;;;;17.20;8.87;;;;;;;5.34;100.00;100401.45;5042914;56;1140834;-67
2022/12/28 16:00:21;;;;;;;28.70;12.73;;;;;;;5.39;100.00;100403.31;5061777;56;1140967;-65
2022/12/28 16:05:23;;;;;;;20.73;8.77;;;;;;;5.44;100.00;100413.08;5068322;56;1143511;-66
2022/12/28 16:10:28;;;;;;;10.58;6.12;;;;;;;5.53;100.00;100407.29;5040547;56;1140975;-65
2022/12/28 16:15:35;;;;;;;14.20;6.40;;;;;;;5.60;100.00;100411.26;5062508;56;1140813;-69
2022/12/28 16:20:41;;;;;;;13.70;7.27;;;;;;;5.65;100.00;100410.53;5038712;57;1140960;-68
2022/12/28 16:25:51;;;;;;;17.57;7.53;;;;;;;5.68;100.00;100408.17;5107823;56;1140952;-66
2022/12/28 16:30:58;;;;;;;127.92;25.45;;;;;;;5.70;100.00;100400.59;5144680;56;1140828;-70
2022/12/28 16:36:08;;;;;;;67.30;22.93;;;;;;;5.72;100.00;100400.50;5044982;56;1145135;-69
2022/12/28 16:41:15;;;;;;;57.27;21.23;;;;;;;5.74;100.00;100399.48;5039900;57;1143272;-67
2022/12/28 16:46:21;;;;;;;21.27;8.43;;;;;;;5.76;100.00;100407.27;5081134;56;1140831;-69
2022/12/28 16:51:27;;;;;;;47.73;15.88;;;;;;;5.77;100.00;100392.74;5114771;56;1177968;-65
2022/12/28 16:56:32;;;;;;;24.47;9.45;;;;;;;5.82;100.00;100395.91;5111998;56;1142958;-69
2022/12/28 17:01:38;;;;;;;20.33;7.33;;;;;;;5.88;100.00;100396.91;5107554;56;1141075;-69
2022/12/28 17:06:46;;;;;;;17.75;7.20;;;;;;;5.88;100.00;100396.91;5139699;56;1140931;-69
2022/12/28 17:11:51;;;;;;;25.17;10.40;;;;;;;5.92;100.00;100398.42;5124075;56;1140996;-70
2022/12/28 17:16:57;;;;;;;15.98;9.05;;;;;;;5.90;100.00;100400.28;5080390;56;1143008;-69
2022/12/28 17:22:05;;;;;;;14.83;9.00;;;;;;;5.87;100.00;100400.89;5141081;56;1140826;-67
2022/12/28 17:27:11;;;;;;;23.67;14.17;;;;;;;5.83;100.00;100395.45;5126136;56;1140902;-69
2022/12/28 17:32:17;;;;;;;22.47;7.47;;;;;;;5.81;100.00;100391.59;5104558;56;1143446;-70
2022/12/28 17:37:23;;;;;;;19.23;8.70;;;;;;;5.78;100.00;100386.56;5040881;57;1141021;-67
2022/12/28 17:42:29;;;;;;;20.30;8.27;;;;;;;5.79;100.00;100382.16;5107655;56;1140871;-68
2022/12/28 17:47:35;;;;;;;59.50;23.67;;;;;;;5.80;100.00;100374.20;5067671;56;1140842;-67
2022/12/28 17:52:41;;;;;;;39.90;16.87;;;;;;;5.82;100.00;100370.14;5037817;57;1143030;-67
2022/12/28 17:57:47;;;;;;;49.83;20.03;;;;;;;5.80;100.00;100384.69;5060886;57;1143059;-66
2022/12/28 18:02:54;;;;;;;60.20;25.77;;;;;;;5.77;100.00;100387.95;5040380;56;1142932;-66
2022/12/28 18:07:59;;;;;;;26.87;12.27;;;;;;;5.77;100.00;100399.30;5034304;57;1143061;-70
2022/12/28 18:13:05;;;;;;;27.10;13.17;;;;;;;5.76;100.00;100392.83;5058151;57;1142889;-68
2022/12/28 18:18:11;;;;;;;29.43;13.77;;;;;;;5.76;100.00;100392.83;5050809;56;1143061;-65
2022/12/28 18:23:17;;;;;;;15.90;8.60;;;;;;;5.78;100.00;100397.06;5074972;56;1143132;-68
2022/12/28 18:28:22;;;;;;;18.93;8.87;;;;;;;5.78;100.00;100386.56;5126718;56;1141099;-66
2022/12/28 18:33:28;;;;;;;25.23;11.90;;;;;;;5.79;100.00;100382.16;5087738;56;1140825;-69
2022/12/28 18:38:37;;;;;;;14.40;7.50;;;;;;;5.80;100.00;100390.41;5031414;57;1143053;-68
2022/12/28 18:43:43;;;;;;;14.50;7.27;;;;;;;5.80;100.00;100381.22;5033729;57;1141007;-66
2022/12/28 18:48:49;;;;;;;15.33;9.73;;;;;;;5.80;100.00;100373.34;5054519;57;1138840;-66
2022/12/28 18:53:55;;;;;;;18.55;10.63;;;;;;;5.78;100.00;100372.13;5042686;57;1138953;-66
2022/12/28 18:59:01;;;;;;;21.10;10.53;;;;;;;5.78;100.00;100365.56;5041643;56;1143065;-67
2022/12/28 19:04:08;;;;;;;24.30;8.45;;;;;;;5.78;100.00;100357.70;5065231;56;1141058;-68
2022/12/28 19:09:14;;;;;;;14.15;7.28;;;;;;;5.79;100.00;100361.16;5041209;56;1140935;-68
2022/12/28 19:14:20;;;;;;;42.00;14.05;;;;;;;5.79;100.00;100355.45;5037817;57;1140865;-66
2022/12/28 19:19:26;;;;;;;33.55;12.45;;;;;;;5.80;100.00;100345.80;5037252;57;1142923;-69
2022/12/28 19:24:32;;;;;;;37.30;13.60;;;;;;;5.78;100.00;100342.41;5061518;57;1142888;-68
2022/12/28 19:29:37;;;;;;;56.10;23.80;;;;;;;5.77;100.00;100343.35;5044751;57;1142992;-68
2022/12/28 19:34:43;;;;;;;31.27;14.03;;;;;;;5.80;100.00;100344.48;4990715;57;1142946;-69
2022/12/28 19:39:49;;;;;;;27.60;10.63;;;;;;;5.76;100.00;100345.13;4982467;58;1140753;-67
2022/12/28 19:44:55;;;;;;;30.07;12.93;;;;;;;5.75;100.00;100347.38;4974718;57;1142805;-67
2022/12/28 19:50:00;;;;;;;32.07;13.80;;;;;;;5.77;100.00;100337.63;5043972;56;1142813;-71
2022/12/28 19:55:07;;;;;;;12.80;6.87;;;;;;;5.75;100.00;100338.66;5017263;57;1140848;-68
2022/12/28 20:00:14;;;;;;;19.57;8.85;;;;;;;5.73;100.00;100338.75;4963917;57;1138738;-69
2022/12/28 20:05:19;;;;;;;27.62;8.93;;;;;;;5.76;100.00;100328.08;4999650;56;1140806;-67
2022/12/28 20:10:25;;;;;;;26.43;11.83;;;;;;;5.78;100.00;100338.02;5038968;56;1140923;-68
2022/12/28 20:15:31;;;;;;;28.13;10.87;;;;;;;5.77;100.00;100323.20;5099650;56;1140857;-68
2022/12/28 20:20:36;;;;;;;25.67;9.63;;;;;;;5.79;100.00;100325.27;5106601;56;1143084;-67
2022/12/28 20:25:51;;;;;;;19.83;11.13;;;;;;;5.84;100.00;100326.28;5117613;56;1141030;-68
2022/12/28 20:31:05;;;;;;;17.80;8.33;;;;;;;5.88;100.00;100318.16;5142318;56;1140832;-68
2022/12/28 20:36:17;;;;;;;20.88;10.25;;;;;;;5.93;100.00;100312.17;5063123;56;1140929;-68
2022/12/28 20:46:50;;;;;;;17.50;6.67;;;;;;;6.06;100.00;100313.56;5089306;56;1138802;-67
2022/12/28 20:51:56;;;;;;;14.47;7.07;;;;;;;6.14;100.00;100309.98;5121778;56;1140783;-65
2022/12/28 20:57:02;;;;;;;18.60;8.93;;;;;;;6.20;100.00;100316.64;5101639;56;1141089;-68
2022/12/28 21:02:10;;;;;;;16.43;6.13;;;;;;;6.24;100.00;100317.67;5109065;56;1140833;-67
2022/12/28 21:07:18;;;;;;;20.00;7.97;;;;;;;6.24;100.00;100315.52;5064369;56;1138885;-71
2022/12/28 21:12:23;;;;;;;14.03;5.87;;;;;;;6.25;100.00;100297.51;5037759;57;1140859;-67
2022/12/28 21:17:30;;;;;;;14.23;5.87;;;;;;;6.30;100.00;100296.73;5041277;56;1141248;-68
2022/12/28 21:22:35;;;;;;;11.27;5.80;;;;;;;6.31;100.00;100287.91;5083768;56;1138723;-68
2022/12/28 21:27:41;;;;;;;27.37;10.50;;;;;;;6.38;100.00;100287.06;5127403;56;1140814;-66
2022/12/28 21:32:49;;;;;;;18.07;7.20;;;;;;;6.43;100.00;100277.92;5104544;56;1142888;-69
2022/12/28 21:37:55;;;;;;;12.37;6.57;;;;;;;6.46;100.00;100263.75;5080868;56;1138983;-67
2022/12/28 21:43:01;;;;;;;10.43;5.73;;;;;;;6.50;100.00;100267.41;5043621;56;1140817;-68
2022/12/28 21:48:07;;;;;;;15.40;6.50;;;;;;;6.55;100.00;100246.10;5042977;56;1140882;-68
2022/12/28 21:53:12;;;;;;;15.13;5.70;;;;;;;6.58;100.00;100239.30;5062892;57;1138678;-70
2022/12/28 21:58:18;;;;;;;18.95;8.80;;;;;;;6.61;100.00;100234.70;5042872;57;1140766;-68
2022/12/28 22:14:10;;;;;;;15.23;6.37;;;;;;;6.69;100.00;100225.02;5062667;57;1141042;-67
2022/12/28 22:19:16;;;;;;;9.30;5.03;;;;;;;6.73;100.00;100222.53;5039776;57;1140850;-69
2022/12/28 22:24:24;;;;;;;10.77;5.27;;;;;;;6.76;100.00;100226.27;5042127;57;1138868;-67
2022/12/28 22:29:29;;;;;;;10.00;5.17;;;;;;;6.79;100.00;100214.25;5044953;57;1140909;-66
2022/12/28 22:34:35;;;;;;;15.53;6.47;;;;;;;6.80;100.00;100213.30;5013205;57;1140909;-66
2022/12/28 22:39:42;;;;;;;15.67;4.47;;;;;;;6.80;100.00;100213.78;4963917;57;1140924;-71
2022/12/28 22:44:48;;;;;;;14.07;4.50;;;;;;;6.76;100.00;100227.59;4975802;57;1138870;-68
2022/12/28 22:49:54;;;;;;;12.63;5.17;;;;;;;6.75;100.00;100222.43;5064712;57;1141291;-68
2022/12/28 22:55:00;;;;;;;10.83;4.23;;;;;;;6.74;100.00;100218.95;5043241;57;1140921;-70
2022/12/28 23:00:10;;;;;;;11.23;4.67;;;;;;;6.72;100.00;100206.42;5024823;57;1141274;-69
2022/12/28 23:05:16;;;;;;;10.10;3.90;;;;;;;6.64;100.00;100191.15;5050872;57;1140798;-68
2022/12/28 23:10:22;;;;;;;13.35;5.35;;;;;;;6.61;100.00;100199.23;5044969;57;1140928;-68
2022/12/28 23:15:27;;;;;;;18.07;5.72;;;;;;;6.55;100.00;100183.89;5044934;57;1140783;-68
2022/12/28 23:31:23;;;;;;;9.80;4.60;;;;;;;6.42;100.00;100156.72;5043734;57;1140805;-69
2022/12/28 23:36:32;;;;;;;8.65;4.80;;;;;;;6.41;100.00;100143.24;5043853;57;1138794;-70
2022/12/28 23:41:49;;;;;;;12.47;5.40;;;;;;;6.42;100.00;100123.88;5063351;57;1138833;-69
2022/12/28 23:46:55;;;;;;;31.80;10.23;;;;;;;6.41;100.00;100103.00;5043396;57;1140715;-70
2022/12/28 23:52:01;;;;;;;12.07;6.40;;;;;;;6.42;100.00;100108.13;5046950;56;1142847;-69
2022/12/28 23:57:07;;;;;;;45.88;21.48;;;;;;;6.40;100.00;100108.73;5140259;56;1140879;-69
